sensor_id;sensor_type;location;lat;lon;timestamp;P1;durP1;ratioP1;P2;durP2;ratioP2
2564;SDS011;1292;48.020;7.822;2022-07-18T05:47:01;7.00;;;3.37;;
2564;SDS011;1292;48.020;7.822;2022-07-18T05:49:28;3.37;;;3.07;;
2564;SDS011;1292;48.020;7.822;2022-07-18T05:51:54;3.60;;;3.20;;
2564;SDS011;1292;48.020;7.822;2022-07-18T05:54:21;3.53;;;3.13;;
2564;SDS011;1292;48.020;7.822;2022-07-18T05:56:48;4.80;;;3.10;;
2564;SDS011;1292;48.020;7.822;2022-07-18T05:59:16;5.60;;;3.60;;
2564;SDS011;1292;48.020;7.822;2022-07-18T06:01:44;8.20;;;3.10;;
2564;SDS011;1292;48.020;7.822;2022-07-18T06:04:12;3.70;;;3.40;;
2564;SDS011;1292;48.020;7.822;2022-07-18T06:06:39;3.00;;;2.73;;
2564;SDS011;1292;48.020;7.822;2022-07-18T06:09:07;4.33;;;3.00;;
2564;SDS011;1292;48.020;7.822;2022-07-18T06:11:34;3.53;;;3.23;;
2564;SDS011;1292;48.020;7.822;2022-07-18T06:14:01;3.30;;;3.00;;
2564;SDS011;1292;48.020;7.822;2022-07-18T06:16:28;4.40;;;3.23;;
2564;SDS011;1292;48.020;7.822;2022-07-18T06:18:55;4.80;;;3.20;;
2564;SDS011;1292;48.020;7.822;2022-07-18T06:21:24;3.80;;;3.30;;
2564;SDS011;1292;48.020;7.822;2022-07-18T06:23:51;3.30;;;3.00;;
2564;SDS011;1292;48.020;7.822;2022-07-18T06:26:18;20.90;;;4.23;;
2564;SDS011;1292;48.020;7.822;2022-07-18T06:28:45;3.10;;;2.90;;
2564;SDS011;1292;48.020;7.822;2022-07-18T06:31:12;3.53;;;3.23;;
2564;SDS011;1292;48.020;7.822;2022-07-18T06:33:41;4.10;;;3.13;;
2564;SDS011;1292;48.020;7.822;2022-07-18T06:36:08;3.50;;;2.90;;
2564;SDS011;1292;48.020;7.822;2022-07-18T06:38:38;3.00;;;2.80;;
2564;SDS011;1292;48.020;7.822;2022-07-18T06:41:05;4.27;;;3.20;;
2564;SDS011;1292;48.020;7.822;2022-07-18T06:43:33;4.87;;;2.80;;
2564;SDS011;1292;48.020;7.822;2022-07-18T06:46:00;3.77;;;2.60;;
2564;SDS011;1292;48.020;7.822;2022-07-18T06:48:26;3.07;;;2.23;;
2564;SDS011;1292;48.020;7.822;2022-07-18T06:50:58;3.03;;;2.77;;
2564;SDS011;1292;48.020;7.822;2022-07-18T06:53:27;4.07;;;2.53;;
2564;SDS011;1292;48.020;7.822;2022-07-18T06:55:56;5.43;;;2.20;;
2564;SDS011;1292;48.020;7.822;2022-07-18T06:58:23;2.70;;;2.50;;
2564;SDS011;1292;48.020;7.822;2022-07-18T07:00:50;2.77;;;2.57;;
2564;SDS011;1292;48.020;7.822;2022-07-18T07:03:17;2.60;;;2.30;;
2564;SDS011;1292;48.020;7.822;2022-07-18T07:05:44;8.90;;;4.13;;
2564;SDS011;1292;48.020;7.822;2022-07-18T07:08:11;3.73;;;2.93;;
2564;SDS011;1292;48.020;7.822;2022-07-18T07:10:38;3.80;;;2.60;;
2564;SDS011;1292;48.020;7.822;2022-07-18T07:13:06;11.30;;;3.57;;
2564;SDS011;1292;48.020;7.822;2022-07-18T07:15:33;6.00;;;2.93;;
2564;SDS011;1292;48.020;7.822;2022-07-18T07:18:00;8.40;;;2.97;;
2564;SDS011;1292;48.020;7.822;2022-07-18T07:20:27;5.90;;;2.53;;
2564;SDS011;1292;48.020;7.822;2022-07-18T07:22:55;4.03;;;2.67;;
2564;SDS011;1292;48.020;7.822;2022-07-18T07:25:27;3.40;;;2.80;;
2564;SDS011;1292;48.020;7.822;2022-07-18T07:27:54;2.73;;;2.30;;
2564;SDS011;1292;48.020;7.822;2022-07-18T07:30:22;3.33;;;2.60;;
2564;SDS011;1292;48.020;7.822;2022-07-18T07:32:49;4.27;;;2.57;;
2564;SDS011;1292;48.020;7.822;2022-07-18T07:35:17;3.20;;;2.60;;
2564;SDS011;1292;48.020;7.822;2022-07-18T07:37:45;2.40;;;2.20;;
2564;SDS011;1292;48.020;7.822;2022-07-18T07:40:13;4.00;;;2.80;;
2564;SDS011;1292;48.020;7.822;2022-07-18T07:42:40;2.90;;;2.33;;
2564;SDS011;1292;48.020;7.822;2022-07-18T07:45:08;2.80;;;2.60;;
2564;SDS011;1292;48.020;7.822;2022-07-18T07:47:37;3.50;;;2.50;;
2564;SDS011;1292;48.020;7.822;2022-07-18T07:50:07;2.80;;;2.60;;
2564;SDS011;1292;48.020;7.822;2022-07-18T07:52:36;3.43;;;2.30;;
2564;SDS011;1292;48.020;7.822;2022-07-18T07:55:04;8.50;;;2.73;;
2564;SDS011;1292;48.020;7.822;2022-07-18T07:57:32;4.47;;;2.10;;
2564;SDS011;1292;48.020;7.822;2022-07-18T08:00:01;9.23;;;2.87;;
2564;SDS011;1292;48.020;7.822;2022-07-18T08:02:29;2.57;;;2.37;;
2564;SDS011;1292;48.020;7.822;2022-07-18T08:04:58;3.70;;;2.27;;
2564;SDS011;1292;48.020;7.822;2022-07-18T08:07:25;6.10;;;3.20;;
2564;SDS011;1292;48.020;7.822;2022-07-18T08:09:52;10.73;;;2.80;;
2564;SDS011;1292;48.020;7.822;2022-07-18T08:12:19;3.00;;;2.80;;
2564;SDS011;1292;48.020;7.822;2022-07-18T08:14:45;3.33;;;2.70;;
2564;SDS011;1292;48.020;7.822;2022-07-18T08:17:12;6.47;;;3.07;;
2564;SDS011;1292;48.020;7.822;2022-07-18T08:19:39;2.40;;;2.30;;
2564;SDS011;1292;48.020;7.822;2022-07-18T08:22:07;2.70;;;2.40;;
2564;SDS011;1292;48.020;7.822;2022-07-18T08:24:35;2.90;;;2.60;;
2564;SDS011;1292;48.020;7.822;2022-07-18T08:27:02;2.53;;;2.33;;
2564;SDS011;1292;48.020;7.822;2022-07-18T08:29:29;3.10;;;2.60;;
2564;SDS011;1292;48.020;7.822;2022-07-18T08:31:55;5.57;;;3.60;;
2564;SDS011;1292;48.020;7.822;2022-07-18T08:34:22;3.73;;;2.40;;
2564;SDS011;1292;48.020;7.822;2022-07-18T08:36:49;2.57;;;2.30;;
2564;SDS011;1292;48.020;7.822;2022-07-18T08:39:17;2.40;;;2.20;;
2564;SDS011;1292;48.020;7.822;2022-07-18T08:41:44;3.37;;;2.60;;
2564;SDS011;1292;48.020;7.822;2022-07-18T08:44:12;2.80;;;2.50;;
2564;SDS011;1292;48.020;7.822;2022-07-18T08:46:39;6.13;;;2.60;;
2564;SDS011;1292;48.020;7.822;2022-07-18T08:49:09;2.73;;;2.43;;
2564;SDS011;1292;48.020;7.822;2022-07-18T08:51:37;3.97;;;2.70;;
2564;SDS011;1292;48.020;7.822;2022-07-18T08:54:05;4.10;;;2.53;;
2564;SDS011;1292;48.020;7.822;2022-07-18T08:56:33;2.30;;;2.07;;
2564;SDS011;1292;48.020;7.822;2022-07-18T08:59:00;3.10;;;2.80;;
2564;SDS011;1292;48.020;7.822;2022-07-18T09:01:28;2.60;;;2.37;;
2564;SDS011;1292;48.020;7.822;2022-07-18T09:03:55;3.67;;;2.20;;
2564;SDS011;1292;48.020;7.822;2022-07-18T09:06:41;2.87;;;2.60;;
2564;SDS011;1292;48.020;7.822;2022-07-18T09:09:09;2.30;;;2.07;;
2564;SDS011;1292;48.020;7.822;2022-07-18T09:11:49;2.30;;;2.20;;
2564;SDS011;1292;48.020;7.822;2022-07-18T09:14:28;6.33;;;2.60;;
2564;SDS011;1292;48.020;7.822;2022-07-18T09:16:59;2.73;;;2.53;;
2564;SDS011;1292;48.020;7.822;2022-07-18T09:19:27;2.50;;;2.30;;
2564;SDS011;1292;48.020;7.822;2022-07-18T09:21:54;2.50;;;2.30;;
2564;SDS011;1292;48.020;7.822;2022-07-18T09:24:41;4.40;;;2.60;;
2564;SDS011;1292;48.020;7.822;2022-07-18T09:27:25;2.30;;;2.10;;
2564;SDS011;1292;48.020;7.822;2022-07-18T09:30:09;2.60;;;2.40;;
2564;SDS011;1292;48.020;7.822;2022-07-18T09:32:44;3.53;;;2.20;;
2564;SDS011;1292;48.020;7.822;2022-07-18T09:35:13;3.00;;;2.40;;
2564;SDS011;1292;48.020;7.822;2022-07-18T09:37:41;2.50;;;2.30;;
2564;SDS011;1292;48.020;7.822;2022-07-18T09:40:22;2.10;;;2.00;;
2564;SDS011;1292;48.020;7.822;2022-07-18T09:42:52;4.10;;;2.20;;
2564;SDS011;1292;48.020;7.822;2022-07-18T09:45:21;5.30;;;2.80;;
2564;SDS011;1292;48.020;7.822;2022-07-18T09:47:53;2.63;;;2.20;;
2564;SDS011;1292;48.020;7.822;2022-07-18T09:50:22;2.50;;;2.33;;
2564;SDS011;1292;48.020;7.822;2022-07-18T09:52:57;2.60;;;2.20;;
2564;SDS011;1292;48.020;7.822;2022-07-18T09:55:25;3.00;;;2.40;;
2564;SDS011;1292;48.020;7.822;2022-07-18T09:58:04;23.17;;;3.03;;
2564;SDS011;1292;48.020;7.822;2022-07-18T10:00:32;2.80;;;2.40;;
2564;SDS011;1292;48.020;7.822;2022-07-18T10:03:01;2.57;;;2.37;;
2564;SDS011;1292;48.020;7.822;2022-07-18T10:05:29;3.70;;;1.93;;
2564;SDS011;1292;48.020;7.822;2022-07-18T10:07:57;2.00;;;1.90;;
2564;SDS011;1292;48.020;7.822;2022-07-18T10:10:26;2.80;;;2.57;;
2564;SDS011;1292;48.020;7.822;2022-07-18T10:12:54;2.80;;;2.60;;
2564;SDS011;1292;48.020;7.822;2022-07-18T10:15:25;2.90;;;2.27;;
2564;SDS011;1292;48.020;7.822;2022-07-18T10:17:53;3.73;;;2.63;;
2564;SDS011;1292;48.020;7.822;2022-07-18T10:20:24;2.83;;;2.40;;
2564;SDS011;1292;48.020;7.822;2022-07-18T10:22:58;2.80;;;2.60;;
2564;SDS011;1292;48.020;7.822;2022-07-18T10:25:28;4.20;;;2.80;;
2564;SDS011;1292;48.020;7.822;2022-07-18T10:28:01;3.60;;;2.57;;
2564;SDS011;1292;48.020;7.822;2022-07-18T10:30:33;5.50;;;2.30;;
2564;SDS011;1292;48.020;7.822;2022-07-18T10:33:02;2.70;;;2.50;;
2564;SDS011;1292;48.020;7.822;2022-07-18T10:38:24;2.10;;;1.90;;
2564;SDS011;1292;48.020;7.822;2022-07-18T10:41:04;2.13;;;2.03;;
2564;SDS011;1292;48.020;7.822;2022-07-18T10:43:38;2.20;;;2.10;;
2564;SDS011;1292;48.020;7.822;2022-07-18T10:46:18;2.40;;;2.20;;
2564;SDS011;1292;48.020;7.822;2022-07-18T10:48:54;3.37;;;2.50;;
2564;SDS011;1292;48.020;7.822;2022-07-18T10:51:32;6.70;;;2.50;;
2564;SDS011;1292;48.020;7.822;2022-07-18T10:54:04;3.03;;;2.33;;
2564;SDS011;1292;48.020;7.822;2022-07-18T10:59:34;4.27;;;2.47;;
2564;SDS011;1292;48.020;7.822;2022-07-18T11:02:06;2.23;;;2.03;;
2564;SDS011;1292;48.020;7.822;2022-07-18T11:04:35;2.60;;;2.40;;
2564;SDS011;1292;48.020;7.822;2022-07-18T11:07:06;2.40;;;2.20;;
2564;SDS011;1292;48.020;7.822;2022-07-18T11:09:36;2.80;;;2.60;;
2564;SDS011;1292;48.020;7.822;2022-07-18T11:12:27;2.47;;;2.27;;
2564;SDS011;1292;48.020;7.822;2022-07-18T11:15:03;3.60;;;2.20;;
2564;SDS011;1292;48.020;7.822;2022-07-18T11:20:38;4.77;;;2.60;;
2564;SDS011;1292;48.020;7.822;2022-07-18T11:23:16;3.00;;;2.70;;
2564;SDS011;1292;48.020;7.822;2022-07-18T11:25:45;4.00;;;2.20;;
2564;SDS011;1292;48.020;7.822;2022-07-18T11:28:13;2.10;;;1.87;;
2564;SDS011;1292;48.020;7.822;2022-07-18T11:30:40;2.73;;;2.53;;
2564;SDS011;1292;48.020;7.822;2022-07-18T11:33:21;5.13;;;2.23;;
2564;SDS011;1292;48.020;7.822;2022-07-18T11:35:50;2.80;;;2.03;;
2564;SDS011;1292;48.020;7.822;2022-07-18T11:38:17;1.77;;;1.67;;
2564;SDS011;1292;48.020;7.822;2022-07-18T11:40:47;2.90;;;2.30;;
2564;SDS011;1292;48.020;7.822;2022-07-18T11:43:21;2.60;;;2.40;;
2564;SDS011;1292;48.020;7.822;2022-07-18T11:45:58;2.90;;;2.20;;
2564;SDS011;1292;48.020;7.822;2022-07-18T11:48:30;2.87;;;2.17;;
2564;SDS011;1292;48.020;7.822;2022-07-18T11:50:57;2.33;;;2.13;;
2564;SDS011;1292;48.020;7.822;2022-07-18T11:53:24;2.50;;;2.30;;
2564;SDS011;1292;48.020;7.822;2022-07-18T11:55:51;1.97;;;1.87;;
2564;SDS011;1292;48.020;7.822;2022-07-18T11:58:19;3.30;;;2.40;;
2564;SDS011;1292;48.020;7.822;2022-07-18T12:00:47;3.20;;;2.53;;
2564;SDS011;1292;48.020;7.822;2022-07-18T12:03:15;2.70;;;2.03;;
2564;SDS011;1292;48.020;7.822;2022-07-18T12:05:46;2.40;;;2.20;;
2564;SDS011;1292;48.020;7.822;2022-07-18T12:08:23;2.33;;;1.90;;
2564;SDS011;1292;48.020;7.822;2022-07-18T12:11:07;2.60;;;1.80;;
2564;SDS011;1292;48.020;7.822;2022-07-18T12:13:42;2.10;;;1.90;;
2564;SDS011;1292;48.020;7.822;2022-07-18T12:16:22;2.13;;;2.03;;
2564;SDS011;1292;48.020;7.822;2022-07-18T12:18:54;4.40;;;2.00;;
2564;SDS011;1292;48.020;7.822;2022-07-18T12:21:24;2.23;;;2.03;;
2564;SDS011;1292;48.020;7.822;2022-07-18T12:24:16;1.90;;;1.80;;
2564;SDS011;1292;48.020;7.822;2022-07-18T12:26:48;2.07;;;1.97;;
2564;SDS011;1292;48.020;7.822;2022-07-18T12:32:30;2.87;;;2.20;;
2564;SDS011;1292;48.020;7.822;2022-07-18T12:35:04;2.70;;;2.20;;
2564;SDS011;1292;48.020;7.822;2022-07-18T12:37:34;2.67;;;2.23;;
2564;SDS011;1292;48.020;7.822;2022-07-18T12:40:02;2.27;;;1.97;;
2564;SDS011;1292;48.020;7.822;2022-07-18T12:42:32;4.30;;;2.27;;
2564;SDS011;1292;48.020;7.822;2022-07-18T12:45:00;4.33;;;2.10;;
2564;SDS011;1292;48.020;7.822;2022-07-18T12:47:27;2.47;;;2.20;;
2564;SDS011;1292;48.020;7.822;2022-07-18T12:49:54;1.83;;;1.73;;
2564;SDS011;1292;48.020;7.822;2022-07-18T12:52:21;2.23;;;2.13;;
2564;SDS011;1292;48.020;7.822;2022-07-18T12:54:50;2.90;;;2.70;;
2564;SDS011;1292;48.020;7.822;2022-07-18T12:57:17;2.50;;;2.30;;
2564;SDS011;1292;48.020;7.822;2022-07-18T12:59:45;7.77;;;2.17;;
2564;SDS011;1292;48.020;7.822;2022-07-18T13:02:12;2.30;;;2.10;;
2564;SDS011;1292;48.020;7.822;2022-07-18T13:04:40;3.40;;;2.10;;
2564;SDS011;1292;48.020;7.822;2022-07-18T13:07:07;2.27;;;2.17;;
2564;SDS011;1292;48.020;7.822;2022-07-18T13:09:33;1.73;;;1.57;;
2564;SDS011;1292;48.020;7.822;2022-07-18T13:12:02;2.77;;;2.57;;
2564;SDS011;1292;48.020;7.822;2022-07-18T13:14:29;1.90;;;1.80;;
2564;SDS011;1292;48.020;7.822;2022-07-18T13:16:56;3.37;;;2.23;;
2564;SDS011;1292;48.020;7.822;2022-07-18T13:19:23;2.57;;;2.37;;
2564;SDS011;1292;48.020;7.822;2022-07-18T13:21:49;3.80;;;1.80;;
2564;SDS011;1292;48.020;7.822;2022-07-18T13:24:16;2.17;;;1.97;;
2564;SDS011;1292;48.020;7.822;2022-07-18T13:26:43;4.97;;;1.93;;
2564;SDS011;1292;48.020;7.822;2022-07-18T13:29:11;10.13;;;3.53;;
2564;SDS011;1292;48.020;7.822;2022-07-18T13:31:38;2.57;;;2.37;;
2564;SDS011;1292;48.020;7.822;2022-07-18T13:34:05;2.13;;;2.03;;
2564;SDS011;1292;48.020;7.822;2022-07-18T13:36:32;2.70;;;2.50;;
2564;SDS011;1292;48.020;7.822;2022-07-18T13:38:59;2.33;;;2.23;;
2564;SDS011;1292;48.020;7.822;2022-07-18T13:41:27;3.70;;;2.60;;
2564;SDS011;1292;48.020;7.822;2022-07-18T13:43:54;2.53;;;2.33;;
2564;SDS011;1292;48.020;7.822;2022-07-18T13:46:23;3.83;;;2.17;;
2564;SDS011;1292;48.020;7.822;2022-07-18T13:48:49;2.30;;;2.10;;
2564;SDS011;1292;48.020;7.822;2022-07-18T13:51:16;4.33;;;2.20;;
2564;SDS011;1292;48.020;7.822;2022-07-18T13:53:43;2.37;;;2.17;;
2564;SDS011;1292;48.020;7.822;2022-07-18T13:56:10;7.53;;;2.00;;
2564;SDS011;1292;48.020;7.822;2022-07-18T13:58:37;4.97;;;2.10;;
2564;SDS011;1292;48.020;7.822;2022-07-18T14:01:04;2.77;;;2.20;;
2564;SDS011;1292;48.020;7.822;2022-07-18T14:03:33;5.10;;;2.30;;
2564;SDS011;1292;48.020;7.822;2022-07-18T14:06:00;3.07;;;1.80;;
2564;SDS011;1292;48.020;7.822;2022-07-18T14:08:26;4.30;;;2.63;;
2564;SDS011;1292;48.020;7.822;2022-07-18T14:10:53;2.77;;;2.30;;
2564;SDS011;1292;48.020;7.822;2022-07-18T14:13:20;3.40;;;3.10;;
2564;SDS011;1292;48.020;7.822;2022-07-18T14:15:47;2.67;;;2.07;;
2564;SDS011;1292;48.020;7.822;2022-07-18T14:18:14;2.97;;;2.67;;
2564;SDS011;1292;48.020;7.822;2022-07-18T14:20:42;2.47;;;2.07;;
2564;SDS011;1292;48.020;7.822;2022-07-18T14:23:09;2.70;;;2.30;;
2564;SDS011;1292;48.020;7.822;2022-07-18T14:25:36;5.07;;;2.90;;
2564;SDS011;1292;48.020;7.822;2022-07-18T14:28:03;3.93;;;2.67;;
2564;SDS011;1292;48.020;7.822;2022-07-18T14:30:30;2.60;;;2.40;;
2564;SDS011;1292;48.020;7.822;2022-07-18T14:32:57;2.80;;;2.60;;
2564;SDS011;1292;48.020;7.822;2022-07-18T14:35:24;2.53;;;2.30;;
2564;SDS011;1292;48.020;7.822;2022-07-18T14:37:52;2.20;;;2.00;;
2564;SDS011;1292;48.020;7.822;2022-07-18T14:40:18;3.17;;;2.33;;
2564;SDS011;1292;48.020;7.822;2022-07-18T14:42:45;4.83;;;2.37;;
2564;SDS011;1292;48.020;7.822;2022-07-18T14:45:12;2.40;;;2.20;;
2564;SDS011;1292;48.020;7.822;2022-07-18T14:47:39;2.40;;;2.20;;
2564;SDS011;1292;48.020;7.822;2022-07-18T14:50:06;3.73;;;2.30;;
2564;SDS011;1292;48.020;7.822;2022-07-18T14:52:35;2.37;;;2.17;;
2564;SDS011;1292;48.020;7.822;2022-07-18T14:55:03;3.87;;;2.97;;
2564;SDS011;1292;48.020;7.822;2022-07-18T14:57:30;7.90;;;2.60;;
2564;SDS011;1292;48.020;7.822;2022-07-18T14:59:57;5.90;;;2.43;;
2564;SDS011;1292;48.020;7.822;2022-07-18T15:02:24;3.13;;;2.93;;
2564;SDS011;1292;48.020;7.822;2022-07-18T15:04:51;3.37;;;3.07;;
2564;SDS011;1292;48.020;7.822;2022-07-18T15:07:18;2.80;;;2.60;;
2564;SDS011;1292;48.020;7.822;2022-07-18T15:09:45;3.03;;;2.73;;
2564;SDS011;1292;48.020;7.822;2022-07-18T15:12:13;3.37;;;2.90;;
2564;SDS011;1292;48.020;7.822;2022-07-18T15:14:41;7.10;;;3.23;;
2564;SDS011;1292;48.020;7.822;2022-07-18T15:17:07;5.60;;;3.07;;
2564;SDS011;1292;48.020;7.822;2022-07-18T15:19:34;6.00;;;3.90;;
2564;SDS011;1292;48.020;7.822;2022-07-18T15:22:01;4.87;;;3.23;;
2564;SDS011;1292;48.020;7.822;2022-07-18T15:24:29;5.10;;;3.53;;
2564;SDS011;1292;48.020;7.822;2022-07-18T15:26:56;3.87;;;3.57;;
2564;SDS011;1292;48.020;7.822;2022-07-18T15:29:24;4.70;;;3.90;;
2564;SDS011;1292;48.020;7.822;2022-07-18T15:31:51;3.40;;;3.20;;
2564;SDS011;1292;48.020;7.822;2022-07-18T15:34:18;3.77;;;3.43;;
2564;SDS011;1292;48.020;7.822;2022-07-18T15:36:45;4.20;;;3.70;;
2564;SDS011;1292;48.020;7.822;2022-07-18T15:39:12;5.00;;;3.67;;
2564;SDS011;1292;48.020;7.822;2022-07-18T15:41:39;4.23;;;3.70;;
2564;SDS011;1292;48.020;7.822;2022-07-18T15:44:06;10.80;;;4.10;;
2564;SDS011;1292;48.020;7.822;2022-07-18T15:46:36;3.93;;;3.63;;
2564;SDS011;1292;48.020;7.822;2022-07-18T15:49:03;8.00;;;4.30;;
2564;SDS011;1292;48.020;7.822;2022-07-18T15:51:30;6.40;;;4.40;;
2564;SDS011;1292;48.020;7.822;2022-07-18T15:53:57;6.03;;;4.07;;
2564;SDS011;1292;48.020;7.822;2022-07-18T15:56:24;4.43;;;3.70;;
2564;SDS011;1292;48.020;7.822;2022-07-18T15:58:51;8.23;;;4.17;;
2564;SDS011;1292;48.020;7.822;2022-07-18T16:01:17;4.60;;;3.93;;
2564;SDS011;1292;48.020;7.822;2022-07-18T16:03:47;37.47;;;6.63;;
2564;SDS011;1292;48.020;7.822;2022-07-18T16:06:14;5.30;;;3.87;;
2564;SDS011;1292;48.020;7.822;2022-07-18T16:08:40;4.70;;;3.70;;
2564;SDS011;1292;48.020;7.822;2022-07-18T16:11:07;4.07;;;3.67;;
2564;SDS011;1292;48.020;7.822;2022-07-18T16:13:34;3.70;;;3.40;;
2564;SDS011;1292;48.020;7.822;2022-07-18T16:16:01;5.40;;;3.77;;
2564;SDS011;1292;48.020;7.822;2022-07-18T16:18:28;6.53;;;3.93;;
2564;SDS011;1292;48.020;7.822;2022-07-18T16:20:56;4.50;;;2.90;;
2564;SDS011;1292;48.020;7.822;2022-07-18T16:23:23;3.83;;;3.27;;
2564;SDS011;1292;48.020;7.822;2022-07-18T16:25:50;6.67;;;3.47;;
2564;SDS011;1292;48.020;7.822;2022-07-18T16:28:17;8.87;;;3.03;;
2564;SDS011;1292;48.020;7.822;2022-07-18T16:30:44;4.90;;;3.40;;
2564;SDS011;1292;48.020;7.822;2022-07-18T16:33:10;3.70;;;3.40;;
2564;SDS011;1292;48.020;7.822;2022-07-18T16:35:37;5.50;;;3.10;;
2564;SDS011;1292;48.020;7.822;2022-07-18T16:38:05;3.90;;;2.60;;
2564;SDS011;1292;48.020;7.822;2022-07-18T16:40:32;4.10;;;2.70;;
2564;SDS011;1292;48.020;7.822;2022-07-18T16:42:59;3.00;;;2.70;;
2564;SDS011;1292;48.020;7.822;2022-07-18T16:45:26;5.07;;;2.80;;
2564;SDS011;1292;48.020;7.822;2022-07-18T16:47:54;5.20;;;2.20;;
2564;SDS011;1292;48.020;7.822;2022-07-18T16:50:22;2.60;;;2.40;;
2564;SDS011;1292;48.020;7.822;2022-07-18T16:52:49;3.87;;;3.03;;
2564;SDS011;1292;48.020;7.822;2022-07-18T16:55:17;8.30;;;2.77;;
2564;SDS011;1292;48.020;7.822;2022-07-18T16:57:44;2.53;;;2.20;;
2564;SDS011;1292;48.020;7.822;2022-07-18T17:00:12;3.57;;;2.47;;
2564;SDS011;1292;48.020;7.822;2022-07-18T17:02:40;2.23;;;2.03;;
2564;SDS011;1292;48.020;7.822;2022-07-18T17:05:07;2.67;;;2.00;;
2564;SDS011;1292;48.020;7.822;2022-07-18T17:07:35;2.50;;;1.80;;
2564;SDS011;1292;48.020;7.822;2022-07-18T17:10:02;2.73;;;2.47;;
2564;SDS011;1292;48.020;7.822;2022-07-18T17:12:31;5.47;;;2.20;;
2564;SDS011;1292;48.020;7.822;2022-07-18T17:15:00;2.27;;;2.07;;
2564;SDS011;1292;48.020;7.822;2022-07-18T17:17:27;4.90;;;2.60;;
2564;SDS011;1292;48.020;7.822;2022-07-18T17:19:55;4.57;;;2.10;;
2564;SDS011;1292;48.020;7.822;2022-07-18T17:22:22;3.80;;;2.10;;
2564;SDS011;1292;48.020;7.822;2022-07-18T17:24:50;3.20;;;2.30;;
2564;SDS011;1292;48.020;7.822;2022-07-18T17:27:18;4.23;;;2.13;;
2564;SDS011;1292;48.020;7.822;2022-07-18T17:29:47;2.70;;;2.50;;
2564;SDS011;1292;48.020;7.822;2022-07-18T17:32:14;4.77;;;2.67;;
2564;SDS011;1292;48.020;7.822;2022-07-18T17:34:41;2.40;;;2.20;;
2564;SDS011;1292;48.020;7.822;2022-07-18T17:37:10;2.60;;;2.40;;
2564;SDS011;1292;48.020;7.822;2022-07-18T17:39:38;3.20;;;2.33;;
2564;SDS011;1292;48.020;7.822;2022-07-18T17:42:05;2.53;;;2.33;;
2564;SDS011;1292;48.020;7.822;2022-07-18T17:44:33;2.90;;;2.50;;
2564;SDS011;1292;48.020;7.822;2022-07-18T17:47:02;6.80;;;2.23;;
2564;SDS011;1292;48.020;7.822;2022-07-18T17:49:29;2.70;;;2.33;;
2564;SDS011;1292;48.020;7.822;2022-07-18T17:51:57;3.23;;;2.67;;
2564;SDS011;1292;48.020;7.822;2022-07-18T17:54:24;2.47;;;2.27;;
2564;SDS011;1292;48.020;7.822;2022-07-18T17:56:51;6.40;;;2.37;;
2564;SDS011;1292;48.020;7.822;2022-07-18T17:59:18;3.77;;;1.90;;
2564;SDS011;1292;48.020;7.822;2022-07-18T18:01:45;2.90;;;2.40;;
2564;SDS011;1292;48.020;7.822;2022-07-18T18:04:13;4.93;;;2.10;;
2564;SDS011;1292;48.020;7.822;2022-07-18T18:06:40;2.13;;;2.00;;
2564;SDS011;1292;48.020;7.822;2022-07-18T18:09:07;4.80;;;2.37;;
2564;SDS011;1292;48.020;7.822;2022-07-18T18:11:34;2.50;;;2.30;;
2564;SDS011;1292;48.020;7.822;2022-07-18T18:14:00;6.30;;;2.43;;
2564;SDS011;1292;48.020;7.822;2022-07-18T18:16:27;4.33;;;2.33;;
2564;SDS011;1292;48.020;7.822;2022-07-18T18:18:55;3.57;;;2.50;;
2564;SDS011;1292;48.020;7.822;2022-07-18T18:21:23;2.80;;;2.10;;
2564;SDS011;1292;48.020;7.822;2022-07-18T18:23:50;3.10;;;2.40;;
2564;SDS011;1292;48.020;7.822;2022-07-18T18:26:17;2.27;;;2.00;;
2564;SDS011;1292;48.020;7.822;2022-07-18T18:28:43;3.30;;;2.60;;
2564;SDS011;1292;48.020;7.822;2022-07-18T18:31:11;2.60;;;2.23;;
2564;SDS011;1292;48.020;7.822;2022-07-18T18:33:37;2.93;;;2.73;;
2564;SDS011;1292;48.020;7.822;2022-07-18T18:36:04;2.10;;;2.00;;
2564;SDS011;1292;48.020;7.822;2022-07-18T18:38:35;3.03;;;2.60;;
2564;SDS011;1292;48.020;7.822;2022-07-18T18:41:02;2.50;;;2.30;;
2564;SDS011;1292;48.020;7.822;2022-07-18T18:43:29;4.20;;;2.67;;
2564;SDS011;1292;48.020;7.822;2022-07-18T18:45:56;2.43;;;2.23;;
2564;SDS011;1292;48.020;7.822;2022-07-18T18:48:22;7.67;;;2.73;;
2564;SDS011;1292;48.020;7.822;2022-07-18T18:50:49;3.27;;;2.80;;
2564;SDS011;1292;48.020;7.822;2022-07-18T18:53:16;2.67;;;2.47;;
2564;SDS011;1292;48.020;7.822;2022-07-18T18:55:44;3.00;;;2.80;;
2564;SDS011;1292;48.020;7.822;2022-07-18T18:58:11;3.30;;;3.10;;
2564;SDS011;1292;48.020;7.822;2022-07-18T19:00:38;8.60;;;4.60;;
2564;SDS011;1292;48.020;7.822;2022-07-18T19:03:04;5.03;;;4.53;;
2564;SDS011;1292;48.020;7.822;2022-07-18T19:05:31;5.10;;;4.37;;
2564;SDS011;1292;48.020;7.822;2022-07-18T19:07:58;10.60;;;3.97;;
2564;SDS011;1292;48.020;7.822;2022-07-18T19:10:25;3.80;;;2.90;;
2564;SDS011;1292;48.020;7.822;2022-07-18T19:12:53;5.13;;;2.50;;
2564;SDS011;1292;48.020;7.822;2022-07-18T19:15:20;5.83;;;2.87;;
2564;SDS011;1292;48.020;7.822;2022-07-18T19:17:47;3.40;;;2.77;;
2564;SDS011;1292;48.020;7.822;2022-07-18T19:20:13;5.90;;;2.80;;
2564;SDS011;1292;48.020;7.822;2022-07-18T19:22:40;4.47;;;2.80;;
2564;SDS011;1292;48.020;7.822;2022-07-18T19:25:07;3.77;;;3.10;;
2564;SDS011;1292;48.020;7.822;2022-07-18T19:27:35;5.00;;;2.73;;
2564;SDS011;1292;48.020;7.822;2022-07-18T19:30:04;3.97;;;3.10;;
2564;SDS011;1292;48.020;7.822;2022-07-18T19:32:31;6.37;;;2.57;;
2564;SDS011;1292;48.020;7.822;2022-07-18T19:34:58;3.80;;;3.50;;
2564;SDS011;1292;48.020;7.822;2022-07-18T19:37:25;4.77;;;2.50;;
2564;SDS011;1292;48.020;7.822;2022-07-18T19:39:52;3.57;;;3.27;;
2564;SDS011;1292;48.020;7.822;2022-07-18T19:42:19;3.20;;;2.90;;
2564;SDS011;1292;48.020;7.822;2022-07-18T19:44:45;4.17;;;3.43;;
2564;SDS011;1292;48.020;7.822;2022-07-18T19:47:13;5.90;;;3.10;;
2564;SDS011;1292;48.020;7.822;2022-07-18T19:49:40;4.40;;;3.60;;
2564;SDS011;1292;48.020;7.822;2022-07-18T19:52:07;3.60;;;3.30;;
2564;SDS011;1292;48.020;7.822;2022-07-18T19:54:36;3.43;;;3.10;;
2564;SDS011;1292;48.020;7.822;2022-07-18T19:57:03;4.93;;;3.47;;
2564;SDS011;1292;48.020;7.822;2022-07-18T19:59:31;3.90;;;3.50;;
2564;SDS011;1292;48.020;7.822;2022-07-18T20:01:58;6.43;;;3.53;;
2564;SDS011;1292;48.020;7.822;2022-07-18T20:04:26;4.50;;;3.40;;
2564;SDS011;1292;48.020;7.822;2022-07-18T20:06:53;4.47;;;3.43;;
2564;SDS011;1292;48.020;7.822;2022-07-18T20:09:20;3.70;;;3.40;;
2564;SDS011;1292;48.020;7.822;2022-07-18T20:11:47;4.93;;;4.43;;
2564;SDS011;1292;48.020;7.822;2022-07-18T20:14:14;3.57;;;3.27;;
2564;SDS011;1292;48.020;7.822;2022-07-18T20:16:40;4.50;;;4.10;;
2564;SDS011;1292;48.020;7.822;2022-07-18T20:19:07;8.67;;;3.67;;
2564;SDS011;1292;48.020;7.822;2022-07-18T20:21:35;5.57;;;3.13;;
2564;SDS011;1292;48.020;7.822;2022-07-18T20:24:03;6.20;;;3.50;;
2564;SDS011;1292;48.020;7.822;2022-07-18T20:26:30;4.10;;;3.70;;
2564;SDS011;1292;48.020;7.822;2022-07-18T20:28:57;5.97;;;3.73;;
2564;SDS011;1292;48.020;7.822;2022-07-18T20:31:24;4.27;;;3.53;;
2564;SDS011;1292;48.020;7.822;2022-07-18T20:33:51;4.03;;;3.60;;
2564;SDS011;1292;48.020;7.822;2022-07-18T20:36:18;3.70;;;3.37;;
2564;SDS011;1292;48.020;7.822;2022-07-18T20:38:47;3.50;;;3.03;;
2564;SDS011;1292;48.020;7.822;2022-07-18T20:41:14;6.33;;;4.40;;
2564;SDS011;1292;48.020;7.822;2022-07-18T20:43:41;9.90;;;4.90;;
2564;SDS011;1292;48.020;7.822;2022-07-18T20:46:08;5.10;;;4.60;;
2564;SDS011;1292;48.020;7.822;2022-07-18T20:48:37;5.53;;;4.73;;
2564;SDS011;1292;48.020;7.822;2022-07-18T20:51:04;8.27;;;5.17;;
2564;SDS011;1292;48.020;7.822;2022-07-18T20:53:31;9.53;;;6.20;;
2564;SDS011;1292;48.020;7.822;2022-07-18T20:56:00;9.57;;;6.50;;
2564;SDS011;1292;48.020;7.822;2022-07-18T20:58:27;6.83;;;6.20;;
